createdAt,value
2022-08-22T07:12:54.125Z,96453.75
2022-08-22T07:14:03.568Z,96454.81
2022-08-22T07:15:21.367Z,96447.88
2022-08-22T07:16:31.025Z,96454.94
2022-08-22T07:17:32.750Z,96461.94
2022-08-22T07:18:34.692Z,96442.66
2022-08-22T07:37:56.341Z,96456.69
2022-08-22T07:39:11.327Z,96461.84
2022-08-22T07:40:23.613Z,96462.50
2022-08-22T07:41:36.638Z,96457.94
2022-08-22T07:43:04.825Z,96463.19
2022-08-22T07:44:17.713Z,96459.59
2022-08-22T07:58:44.537Z,96471.66
2022-08-22T07:59:50.109Z,96468.50
2022-08-22T08:00:52.341Z,96470.50
2022-08-22T08:01:58.542Z,96473.31
2022-08-22T08:03:08.868Z,96472.16
2022-08-22T08:04:15.486Z,96467.88
2022-08-22T08:05:18.688Z,96476.09
2022-08-22T08:06:23.322Z,96470.09
2022-08-22T08:07:27.583Z,96467.06
2022-08-22T08:08:41.830Z,96472.25
2022-08-22T08:23:23.578Z,96461.19
2022-08-22T08:24:31.594Z,96467.78
2022-08-22T08:26:06.869Z,96476.66
2022-08-22T08:27:32.876Z,96475.28
2022-08-22T08:28:41.508Z,96475.88
2022-08-22T08:29:54.359Z,96475.53
2022-08-22T08:30:59.891Z,96476.41
2022-08-22T08:32:02.035Z,96476.88
2022-08-22T08:33:24.816Z,96470.91
2022-08-22T08:47:26.038Z,96466.22
2022-08-22T08:48:47.986Z,96468.25
2022-08-22T08:50:07.517Z,96465.16
2022-08-22T08:52:00.843Z,96464.53
2022-08-22T08:53:14.482Z,96459.69
2022-08-22T08:54:47.283Z,96461.66
2022-08-22T08:56:06.968Z,96456.25
2022-08-22T08:57:15.319Z,96457.66
2022-08-22T08:58:56.320Z,96451.72
2022-08-22T09:00:21.750Z,96453.81
2022-08-22T09:15:23.697Z,96452.28
2022-08-22T09:16:46.296Z,96452.38
2022-08-22T09:18:24.275Z,96459.25
2022-08-22T09:19:46.109Z,96453.34
2022-08-22T09:21:06.471Z,96453.94
2022-08-22T09:22:19.553Z,96451.81
2022-08-22T09:23:48.931Z,96456.13
2022-08-22T09:25:38.682Z,96459.06
2022-08-22T09:26:57.140Z,96458.91
2022-08-22T09:28:28.358Z,96456.69
2022-08-22T09:29:55.229Z,96450.56
2022-08-22T09:31:21.828Z,96461.13
2022-08-22T09:32:50.308Z,96461.56
2022-08-22T09:33:58.067Z,96458.53
2022-08-22T09:35:15.312Z,96464.22
2022-08-22T09:50:22.610Z,96458.19
2022-08-22T09:51:39.731Z,96467.66
2022-08-22T09:53:23.196Z,96465.13
2022-08-22T09:54:40.996Z,96461.69
2022-08-22T09:56:00.497Z,96466.66
2022-08-22T09:57:19.120Z,96462.56
2022-08-22T09:58:41.758Z,96463.59
2022-08-22T10:00:02.109Z,96465.69
2022-08-22T10:01:24.609Z,96468.44
2022-08-22T10:02:50.385Z,96467.38
2022-08-22T10:04:06.822Z,96471.19
2022-08-22T10:05:40.614Z,96463.66
2022-08-22T10:07:25.156Z,96471.59
2022-08-22T10:08:49.431Z,96468.69
2022-08-22T10:10:03.870Z,96467.44
2022-08-22T10:11:19.635Z,96465.06
2022-08-22T10:12:35.132Z,96466.22
2022-08-22T10:14:03.062Z,96465.25
2022-08-22T10:15:26.077Z,96461.53
2022-08-22T10:16:56.605Z,96464.53
2022-08-22T10:18:06.788Z,96460.38
2022-08-22T10:19:27.173Z,96464.06
2022-08-22T10:20:49.754Z,96463.63
2022-08-22T10:22:21.912Z,96462.66
2022-08-22T10:23:30.101Z,96462.47
2022-08-22T10:24:54.405Z,96459.53
2022-08-22T10:26:29.450Z,96456.66
2022-08-22T10:27:40.376Z,96456.13
2022-08-22T10:28:56.271Z,96453.59
2022-08-22T10:30:10.781Z,96455.25
2022-08-22T10:31:51.082Z,96457.50
2022-08-22T10:33:30.861Z,96447.84
2022-08-22T10:34:45.576Z,96447.47
2022-08-22T10:36:27.662Z,96445.84
2022-08-22T10:37:36.601Z,96442.63
2022-08-22T10:38:52.245Z,96441.53
2022-08-22T10:40:01.168Z,96443.31
2022-08-22T10:41:37.488Z,96438.06
2022-08-22T10:42:51.482Z,96438.97
2022-08-22T10:44:17.343Z,96434.81
2022-08-22T10:45:23.962Z,96442.81
2022-08-22T10:46:42.162Z,96432.00
2022-08-22T10:48:22.123Z,96442.13
2022-08-22T10:49:51.243Z,96426.75
2022-08-22T10:51:39.509Z,96438.97
2022-08-22T10:53:28.929Z,96441.91
2022-08-22T10:55:00.900Z,96434.81
2022-08-22T10:56:21.553Z,96446.22
2022-08-22T10:57:41.868Z,96441.13
2022-08-22T10:59:16.227Z,96434.47
2022-08-22T11:00:55.231Z,96435.19
2022-08-22T11:02:34.525Z,96433.13
2022-08-22T11:03:54.224Z,96431.31
2022-08-22T11:05:14.568Z,96430.69
2022-08-22T11:06:19.170Z,96433.88
2022-08-22T11:07:42.046Z,96434.03
2022-08-22T11:09:13.658Z,96427.31
2022-08-22T11:10:44.769Z,96425.28
2022-08-22T11:11:56.023Z,96431.75
2022-08-22T11:13:06.839Z,96425.59
2022-08-22T11:14:40.520Z,96422.38
2022-08-22T11:16:09.239Z,96424.66
2022-08-22T11:17:31.171Z,96433.47
2022-08-22T11:18:58.084Z,96430.31
2022-08-22T11:20:31.843Z,96428.44
2022-08-22T11:22:11.792Z,96424.91
2022-08-22T11:23:40.639Z,96428.97
2022-08-22T11:25:04.437Z,96424.91
2022-08-22T11:26:46.848Z,96428.00
2022-08-22T11:28:10.707Z,96431.34
2022-08-22T11:29:14.304Z,96419.09
2022-08-22T11:30:20.986Z,96412.88
2022-08-22T11:31:51.292Z,96420.78
2022-08-22T11:33:00.116Z,96418.31
2022-08-22T11:34:14.473Z,96414.50
2022-08-22T11:35:31.765Z,96400.94
2022-08-22T11:36:39.406Z,96412.03
2022-08-22T11:37:51.273Z,96405.38
2022-08-22T11:39:19.284Z,96405.97
2022-08-22T11:40:42.477Z,96408.25
2022-08-22T11:41:52.951Z,96405.75
2022-08-22T11:43:32.369Z,96402.09
2022-08-22T11:44:55.205Z,96402.66
2022-08-22T11:46:00.185Z,96399.97
2022-08-22T11:47:08.018Z,96398.34
2022-08-22T11:48:23.465Z,96400.94
2022-08-22T11:49:33.835Z,96400.34
2022-08-22T11:51:17.319Z,96410.09
2022-08-22T11:52:51.776Z,96398.66
2022-08-22T11:54:38.493Z,96395.47
2022-08-22T11:56:08.188Z,96402.31
2022-08-22T11:57:17.972Z,96396.22
2022-08-22T11:58:22.638Z,96401.50
2022-08-22T11:59:53.610Z,96405.75
2022-08-22T12:00:56.879Z,96394.66
2022-08-22T12:02:04.417Z,96402.38
2022-08-22T12:03:19.678Z,96400.69
2022-08-22T12:04:45.749Z,96400.16
2022-08-22T12:06:06.616Z,96404.31
2022-08-22T12:07:17.723Z,96401.72
2022-08-22T12:08:30.996Z,96395.09
2022-08-22T12:09:55.057Z,96398.75
2022-08-22T12:11:19.502Z,96405.13
2022-08-22T12:12:29.580Z,96393.47
2022-08-22T12:14:04.678Z,96402.94
2022-08-22T12:15:39.148Z,96396.00
2022-08-22T12:16:51.774Z,96403.72
2022-08-22T12:18:21.533Z,96391.66
2022-08-22T12:19:32.757Z,96398.69
2022-08-22T12:20:49.394Z,96386.19
2022-08-22T12:22:04.875Z,96388.81
2022-08-22T12:23:30.364Z,96382.41
2022-08-22T12:25:03.235Z,96387.97
2022-08-22T12:26:16.944Z,96383.09
2022-08-22T12:27:36.543Z,96381.13
2022-08-22T12:28:50.853Z,96388.59
2022-08-22T12:30:13.713Z,96380.03
2022-08-22T12:31:37.611Z,96381.19
2022-08-22T12:33:10.706Z,96386.31
2022-08-22T12:34:52.598Z,96385.69
2022-08-22T12:36:21.884Z,96382.19
2022-08-22T12:38:28.307Z,96379.13
2022-08-22T12:39:54.830Z,96387.38
2022-08-22T12:41:28.132Z,96386.53
2022-08-22T12:42:48.915Z,96378.00
2022-08-22T12:44:00.358Z,96381.63
2022-08-22T12:45:27.243Z,96380.19
2022-08-22T12:46:48.242Z,96374.13
2022-08-22T12:48:07.880Z,96375.78
2022-08-22T12:49:21.238Z,96378.50
2022-08-22T12:50:37.762Z,96364.91
2022-08-22T12:52:01.008Z,96370.53
2022-08-22T12:53:24.706Z,96368.78
2022-08-22T12:54:56.118Z,96365.44
2022-08-22T12:56:42.247Z,96369.94
2022-08-22T12:57:50.424Z,96370.84
2022-08-22T12:59:17.827Z,96370.88
2022-08-22T13:00:30.189Z,96370.41
2022-08-22T13:01:43.442Z,96376.03
2022-08-22T13:02:45.773Z,96367.56
2022-08-22T13:03:50.903Z,96367.59
2022-08-22T13:04:56.837Z,96364.28
2022-08-22T13:06:25.297Z,96364.66
2022-08-22T13:07:34.941Z,96368.00
2022-08-22T13:08:41.532Z,96359.03
2022-08-22T13:09:49.287Z,96361.75
2022-08-22T13:11:01.509Z,96366.69
2022-08-22T13:12:26.102Z,96362.78
2022-08-22T13:13:41.526Z,96357.84
2022-08-22T13:14:46.060Z,96359.16
2022-08-22T13:15:56.099Z,96357.72
2022-08-22T13:17:15.255Z,96352.03
2022-08-22T13:18:33.995Z,96358.66
2022-08-22T13:19:49.748Z,96354.38
2022-08-22T13:20:56.572Z,96361.69
2022-08-22T13:22:07.492Z,96355.34
2022-08-22T13:23:39.630Z,96360.09
2022-08-22T13:24:58.183Z,96359.50
2022-08-22T13:26:33.737Z,96352.44
2022-08-22T13:27:50.921Z,96352.41
2022-08-22T13:29:39.522Z,96342.84
2022-08-22T13:30:43.773Z,96346.63
2022-08-22T13:31:53.192Z,96349.25
2022-08-22T13:33:12.898Z,96350.13
2022-08-22T13:34:35.780Z,96343.47
2022-08-22T13:35:54.047Z,96352.66
2022-08-22T13:37:01.132Z,96341.22
2022-08-22T13:38:12.201Z,96355.38
2022-08-22T13:39:14.584Z,96346.56
2022-08-22T13:40:29.368Z,96344.56
2022-08-22T13:41:36.432Z,96339.59
2022-08-22T13:42:50.570Z,96342.94
2022-08-22T13:44:04.856Z,96347.44
2022-08-22T13:45:21.177Z,96347.38
2022-08-22T13:46:28.260Z,96336.19
2022-08-22T13:47:34.802Z,96344.78
2022-08-22T13:48:50.326Z,96345.44
2022-08-22T13:50:12.370Z,96343.22
2022-08-22T13:51:28.460Z,96345.28
2022-08-22T13:52:52.506Z,96338.97
2022-08-22T13:54:12.152Z,96340.03
2022-08-22T13:55:20.890Z,96335.78
2022-08-22T13:56:28.160Z,96340.28
2022-08-22T13:57:45.692Z,96342.44
2022-08-22T13:58:58.762Z,96330.75
2022-08-22T14:00:28.566Z,96336.31
2022-08-22T14:01:37.920Z,96336.09
2022-08-22T14:03:00.517Z,96332.34
2022-08-22T14:04:28.749Z,96330.00
2022-08-22T14:05:38.405Z,96327.47
2022-08-22T14:07:16.527Z,96328.41
2022-08-22T14:08:32.964Z,96326.13
2022-08-22T14:09:57.221Z,96321.53
2022-08-22T14:11:10.342Z,96328.56
2022-08-22T14:12:33.507Z,96327.53
2022-08-22T14:14:03.113Z,96322.47
2022-08-22T14:15:08.109Z,96321.31
2022-08-22T14:16:23.249Z,96311.44
2022-08-22T14:17:31.358Z,96314.09
2022-08-22T14:18:46.175Z,96320.22
2022-08-22T14:19:59.101Z,96326.00
2022-08-22T14:21:19.977Z,96323.69
2022-08-22T14:22:31.872Z,96308.84
2022-08-22T14:23:37.525Z,96317.72
2022-08-22T14:24:45.366Z,96315.38
2022-08-22T14:25:47.928Z,96315.38
2022-08-22T14:27:05.299Z,96310.59
2022-08-22T14:28:20.548Z,96318.31
2022-08-22T14:29:25.035Z,96309.50
2022-08-22T14:30:32.419Z,96316.88
2022-08-22T14:31:34.827Z,96299.34
2022-08-22T14:32:44.564Z,96316.19
2022-08-22T14:33:55.172Z,96318.88
2022-08-22T14:35:10.785Z,96313.19
2022-08-22T14:36:37.387Z,96314.59
2022-08-22T14:37:42.592Z,96315.72
2022-08-22T14:38:50.669Z,96309.88
2022-08-22T14:40:00.137Z,96313.91
2022-08-22T14:41:06.825Z,96310.44
2022-08-22T14:42:29.277Z,96311.94
2022-08-22T14:43:33.476Z,96313.00
2022-08-22T14:44:58.465Z,96316.09
2022-08-22T14:46:06.324Z,96307.25
2022-08-22T14:47:55.173Z,96321.22
2022-08-22T14:49:13.848Z,96308.78
2022-08-22T14:50:54.285Z,96308.22
2022-08-22T14:52:19.319Z,96308.47
2022-08-22T14:53:26.822Z,96309.75
2022-08-22T14:54:31.161Z,96302.22
2022-08-22T14:55:33.195Z,96307.03
2022-08-22T14:56:37.442Z,96302.81
2022-08-22T14:57:48.522Z,96303.66
2022-08-22T14:58:53.455Z,96304.59
2022-08-22T14:59:54.947Z,96295.91
2022-08-22T15:00:57.700Z,96293.31
2022-08-22T15:02:07.955Z,96292.88
2022-08-22T15:03:22.932Z,96291.00
2022-08-22T15:04:40.153Z,96289.56
2022-08-22T15:06:05.084Z,96288.69
2022-08-22T15:07:08.717Z,96286.84
2022-08-22T15:08:12.793Z,96282.16
2022-08-22T15:09:35.165Z,96294.94
2022-08-22T15:10:41.869Z,96296.44
2022-08-22T15:11:47.816Z,96289.22
2022-08-22T15:12:56.013Z,96295.22
2022-08-22T15:14:23.563Z,96292.94
2022-08-22T15:15:49.432Z,96290.56
2022-08-22T15:17:01.789Z,96285.56
2022-08-22T15:18:19.921Z,96296.66
2022-08-22T15:19:35.685Z,96287.28
2022-08-22T15:20:45.441Z,96295.84
2022-08-22T15:21:51.987Z,96291.81
2022-08-22T15:22:56.351Z,96292.41
2022-08-22T15:24:04.124Z,96285.41
2022-08-22T15:25:21.093Z,96285.03
2022-08-22T15:26:31.060Z,96290.91
2022-08-22T15:27:36.122Z,96297.97
2022-08-22T15:28:52.553Z,96283.06
2022-08-22T15:29:58.739Z,96285.00
2022-08-22T15:31:14.655Z,96286.41
2022-08-22T15:32:22.531Z,96284.16
2022-08-22T15:33:27.603Z,96287.88
2022-08-22T15:34:41.876Z,96286.13
2022-08-22T15:35:45.252Z,96288.53
2022-08-22T15:37:17.584Z,96284.22
2022-08-22T15:38:36.329Z,96280.09
2022-08-22T15:40:18.209Z,96284.31
2022-08-22T15:41:37.210Z,96281.91
2022-08-22T15:42:51.008Z,96282.06
2022-08-22T15:44:02.420Z,96270.50
2022-08-22T15:45:07.557Z,96280.88
2022-08-22T15:46:28.221Z,96286.25
2022-08-22T15:47:41.224Z,96275.25
2022-08-22T15:48:53.278Z,96283.94
2022-08-22T15:49:59.421Z,96277.06
2022-08-22T15:51:10.267Z,96273.09
2022-08-22T15:52:33.001Z,96274.16
2022-08-22T15:53:43.553Z,96275.75
2022-08-22T15:54:54.381Z,96271.09
2022-08-22T15:56:16.654Z,96274.19
2022-08-22T15:57:35.355Z,96281.50
2022-08-22T15:58:40.193Z,96275.66
2022-08-22T15:59:54.373Z,96279.59
2022-08-22T16:01:18.944Z,96266.44
2022-08-22T16:02:24.614Z,96285.72
2022-08-22T16:03:31.814Z,96284.88
2022-08-22T16:04:47.269Z,96283.31
2022-08-22T16:05:55.695Z,96286.94
2022-08-22T16:07:01.142Z,96289.53
2022-08-22T16:08:14.396Z,96290.19
2022-08-22T16:09:44.523Z,96279.66
2022-08-22T16:11:13.728Z,96282.97
2022-08-22T16:12:46.193Z,96284.88
2022-08-22T16:13:48.224Z,96284.41
2022-08-22T16:14:51.389Z,96284.34
2022-08-22T16:16:01.272Z,96281.41
2022-08-22T16:17:25.674Z,96277.44
2022-08-22T16:18:33.222Z,96281.88
2022-08-22T16:19:35.516Z,96270.75
2022-08-22T16:20:36.834Z,96272.84
2022-08-22T16:21:38.244Z,96277.94
2022-08-22T16:22:57.923Z,96269.66
2022-08-22T16:24:00.723Z,96278.72
2022-08-22T16:25:05.024Z,96276.31
2022-08-22T16:26:09.430Z,96273.91
2022-08-22T16:27:21.067Z,96269.88
2022-08-22T16:28:56.866Z,96274.66
2022-08-22T16:30:07.153Z,96273.44
2022-08-22T16:31:20.594Z,96270.19
2022-08-22T16:32:27.601Z,96276.09
2022-08-22T16:33:28.965Z,96281.47
2022-08-22T16:34:33.387Z,96277.75
2022-08-22T16:36:12.514Z,96278.50
2022-08-22T16:37:21.455Z,96276.81
2022-08-22T16:38:36.706Z,96274.56
2022-08-22T16:40:22.676Z,96279.50
2022-08-22T16:41:29.937Z,96274.41
2022-08-22T16:43:09.718Z,96270.31
2022-08-22T16:44:29.428Z,96272.81
2022-08-22T16:45:37.711Z,96269.59
2022-08-22T16:46:43.477Z,96279.59
2022-08-22T16:47:52.672Z,96272.66
2022-08-22T16:49:09.701Z,96271.94
2022-08-22T16:50:23.611Z,96277.53
2022-08-22T16:51:25.047Z,96269.84
2022-08-22T16:52:26.427Z,96280.84
2022-08-22T16:53:27.777Z,96280.44
2022-08-22T16:54:47.094Z,96285.19
2022-08-22T16:55:56.145Z,96277.31
2022-08-22T16:57:05.489Z,96284.19
2022-08-22T16:58:56.546Z,96280.75
2022-08-22T17:00:04.928Z,96279.53
2022-08-22T17:01:32.077Z,96278.81
2022-08-22T17:03:13.397Z,96273.25
2022-08-22T17:04:28.335Z,96272.09
2022-08-22T17:05:56.003Z,96275.41
2022-08-22T17:07:31.247Z,96271.41
2022-08-22T17:08:53.790Z,96268.78
2022-08-22T17:10:12.507Z,96269.66
2022-08-22T17:11:41.512Z,96272.25
2022-08-22T17:13:14.440Z,96276.84
2022-08-22T17:14:22.144Z,96267.94
2022-08-22T17:15:29.252Z,96278.28
2022-08-22T17:16:56.063Z,96273.75
2022-08-22T17:18:21.553Z,96277.75
